Terminal Aerodrome Forecast
Issued by NWS

Home | Current Version | Previous Version | Text Only | Print | Product List | Glossary On
Versions: 1 2 3 4 5 6 7 8 9 10 11 12 13 14 15 16 17 18 19 20 21 22 23 24 25 26 27 28 29 30 31 32 33 34 35
000
FTUS44 KEWX 282237 AAC
TAFSSF
TAF AMD
KSSF 282237Z 2823/2918 10010KT P6SM BKN080
     FM290000 13006KT P6SM SCT050 SCT100
     FM290800 13004KT P6SM BKN012
     FM291000 10003KT P6SM BKN009
     FM291500 17008KT P6SM BKN025
     FM291700 17006KT P6SM SCT050=

USA.gov is the U.S. government's official web portal to all federal, state and local government web resources and services.